createdAt,value
2022-10-02T00:02:12.127Z,11.82
2022-10-02T00:04:51.679Z,17.05
2022-10-02T00:07:20.580Z,15.55
2022-10-02T00:09:54.779Z,10.30
2022-10-02T00:12:25.030Z,14.73
2022-10-02T00:14:56.791Z,12.25
2022-10-02T00:17:29.585Z,15.55
2022-10-02T00:19:56.668Z,9.50
2022-10-02T00:22:34.654Z,11.95
2022-10-02T00:25:50.447Z,12.27
2022-10-02T00:28:27.058Z,10.88
2022-10-02T00:31:13.979Z,10.82
2022-10-02T00:33:52.351Z,8.70
2022-10-02T00:36:18.897Z,7.68
2022-10-02T00:38:57.450Z,12.30
2022-10-02T00:41:49.137Z,14.45
2022-10-02T00:44:35.013Z,14.98
2022-10-02T00:47:12.741Z,10.80
2022-10-02T00:50:00.111Z,10.75
2022-10-02T00:52:58.343Z,19.05
2022-10-02T00:55:30.980Z,14.45
2022-10-02T00:58:02.556Z,14.23
2022-10-02T01:00:29.672Z,13.05
2022-10-02T01:03:20.607Z,16.10
2022-10-02T01:05:47.577Z,10.20
2022-10-02T01:08:14.648Z,18.15
2022-10-02T01:10:41.900Z,9.15
2022-10-02T01:13:08.884Z,13.43
2022-10-02T01:15:44.998Z,13.68
2022-10-02T01:18:15.117Z,12.52
2022-10-02T01:20:45.404Z,12.60
2022-10-02T01:23:30.583Z,22.38
2022-10-02T01:25:59.165Z,13.70
2022-10-02T01:28:29.162Z,12.13
2022-10-02T01:31:07.757Z,10.45
2022-10-02T01:33:36.511Z,14.65
2022-10-02T01:36:03.380Z,11.82
2022-10-02T01:38:30.459Z,21.27
2022-10-02T01:40:57.388Z,10.55
2022-10-02T01:43:34.285Z,12.20
2022-10-02T01:46:35.489Z,9.02
2022-10-02T01:49:24.022Z,15.63
2022-10-02T01:52:02.539Z,17.42
2022-10-02T01:54:58.264Z,12.13
2022-10-02T01:57:52.133Z,10.75
2022-10-02T02:00:24.661Z,14.60
2022-10-02T02:02:57.034Z,17.35
2022-10-02T02:05:32.555Z,16.85
2022-10-02T02:08:15.306Z,15.55
2022-10-02T02:10:47.937Z,16.10
2022-10-02T02:13:26.680Z,18.02
2022-10-02T02:16:02.113Z,16.30
2022-10-02T02:18:39.029Z,19.83
2022-10-02T02:21:14.823Z,14.02
2022-10-02T02:26:12.605Z,12.07
2022-10-02T02:28:46.659Z,12.77
2022-10-02T02:31:18.087Z,15.85
2022-10-02T02:34:06.663Z,14.57
2022-10-02T02:36:37.954Z,13.95
2022-10-02T02:39:10.349Z,12.88
2022-10-02T02:41:46.204Z,14.10
2022-10-02T02:47:04.862Z,12.60
2022-10-02T02:49:44.823Z,11.35
2022-10-02T02:52:29.717Z,10.63
2022-10-02T02:55:08.027Z,11.85
2022-10-02T02:57:45.980Z,10.30
2022-10-02T03:00:15.714Z,13.27
2022-10-02T03:02:42.448Z,13.57
2022-10-02T03:05:17.716Z,14.48
2022-10-02T03:07:59.800Z,10.05
2022-10-02T03:10:46.217Z,12.10
2022-10-02T03:13:50.149Z,8.38
2022-10-02T03:16:54.038Z,7.68
2022-10-02T03:19:42.530Z,10.25
2022-10-02T03:22:36.409Z,10.98
2022-10-02T03:25:05.949Z,7.30
2022-10-02T03:27:52.690Z,11.40
2022-10-02T03:30:20.792Z,7.13
2022-10-02T03:32:53.797Z,8.68
2022-10-02T03:35:22.702Z,7.13
2022-10-02T03:37:53.019Z,7.03
2022-10-02T03:40:26.753Z,8.15
2022-10-02T03:42:58.237Z,6.63
2022-10-02T03:45:49.485Z,6.93
2022-10-02T03:48:12.845Z,9.45
2022-10-02T03:50:39.516Z,10.40
2022-10-02T03:53:18.858Z,9.98
2022-10-02T03:56:09.347Z,6.65
2022-10-02T03:58:41.227Z,8.10
2022-10-02T04:01:14.166Z,11.52
2022-10-02T04:03:53.430Z,15.35
2022-10-02T04:06:44.018Z,7.07
2022-10-02T04:09:22.568Z,13.18
2022-10-02T04:12:16.748Z,15.32
2022-10-02T04:14:55.661Z,14.30
2022-10-02T04:17:27.904Z,12.18
2022-10-02T04:20:03.892Z,14.18
2022-10-02T04:22:37.421Z,15.07
2022-10-02T04:25:12.794Z,16.08
2022-10-02T04:27:57.004Z,16.65
2022-10-02T04:30:23.902Z,14.95
2022-10-02T04:32:51.089Z,12.90
2022-10-02T04:36:01.021Z,19.02
2022-10-02T04:38:55.831Z,22.08
2022-10-02T04:41:32.979Z,17.98
2022-10-02T04:44:35.791Z,24.75
2022-10-02T04:47:05.422Z,18.48
2022-10-02T04:49:32.041Z,15.55
2022-10-02T04:52:07.646Z,21.73
2022-10-02T04:55:02.228Z,25.48
2022-10-02T04:57:38.058Z,20.27
2022-10-02T05:03:11.355Z,18.88
2022-10-02T05:05:56.811Z,18.80
2022-10-02T05:08:40.088Z,26.03
2022-10-02T05:11:45.704Z,21.48
2022-10-02T05:14:23.232Z,24.10
2022-10-02T05:17:08.668Z,23.42
2022-10-02T05:19:47.800Z,19.77
2022-10-02T05:22:32.392Z,28.00
2022-10-02T05:25:17.284Z,24.08
2022-10-02T05:28:07.560Z,22.73
2022-10-02T05:31:13.276Z,29.30
2022-10-02T05:33:41.099Z,29.67
2022-10-02T05:36:21.705Z,23.55
2022-10-02T05:39:09.187Z,23.38
2022-10-02T05:41:47.864Z,31.70
2022-10-02T05:44:23.285Z,20.92
2022-10-02T05:47:05.723Z,29.13
2022-10-02T05:49:41.596Z,27.10
2022-10-02T05:54:52.529Z,24.38
2022-10-02T05:57:31.892Z,25.25
2022-10-02T06:00:04.870Z,25.95
2022-10-02T06:02:43.581Z,23.55
2022-10-02T06:05:26.062Z,28.33
2022-10-02T06:07:58.667Z,22.70
2022-10-02T06:10:32.378Z,26.30
2022-10-02T06:13:07.198Z,23.00
2022-10-02T06:15:43.098Z,24.23
2022-10-02T06:20:47.396Z,31.23
2022-10-02T06:23:24.640Z,30.92
2022-10-02T06:26:00.434Z,23.73
2022-10-02T06:31:19.474Z,28.77
2022-10-02T06:33:46.351Z,27.50
2022-10-02T06:36:30.897Z,26.88
2022-10-02T06:39:22.792Z,26.92
2022-10-02T06:41:55.287Z,22.83
2022-10-02T06:44:59.322Z,23.38
2022-10-02T06:47:35.472Z,24.77
2022-10-02T06:50:28.242Z,27.45
2022-10-02T06:53:19.240Z,26.15
2022-10-02T06:56:05.435Z,27.98
2022-10-02T06:58:55.339Z,19.55
2022-10-02T07:01:40.368Z,27.27
2022-10-02T07:04:19.247Z,23.17
2022-10-02T07:07:10.619Z,22.35
2022-10-02T07:09:55.696Z,23.48
2022-10-02T07:12:47.855Z,23.38
2022-10-02T07:15:46.923Z,23.17
2022-10-02T07:18:34.770Z,22.95
2022-10-02T07:21:26.258Z,19.58
2022-10-02T07:24:11.223Z,22.88
2022-10-02T07:26:45.848Z,21.60
2022-10-02T07:29:54.515Z,23.55
2022-10-02T07:32:21.048Z,15.65
2022-10-02T07:35:06.157Z,20.88
2022-10-02T07:37:57.472Z,16.40
2022-10-02T07:40:47.851Z,17.30
2022-10-02T07:43:39.722Z,18.80
2022-10-02T07:46:24.628Z,23.45
2022-10-02T07:49:06.228Z,21.48
2022-10-02T07:51:47.609Z,16.58
2022-10-02T07:54:17.435Z,13.65
2022-10-02T07:56:47.414Z,17.25
2022-10-02T07:59:17.661Z,17.02
2022-10-02T08:01:47.777Z,17.33
2022-10-02T08:04:34.631Z,15.73
2022-10-02T08:07:05.438Z,19.73
2022-10-02T08:09:42.229Z,16.95
2022-10-02T08:12:34.080Z,17.52
2022-10-02T08:15:02.802Z,18.98
2022-10-02T08:17:33.032Z,14.38
2022-10-02T08:20:19.862Z,13.43
2022-10-02T08:22:51.943Z,17.58
2022-10-02T08:25:39.951Z,14.18
2022-10-02T08:28:19.737Z,10.63
2022-10-02T08:30:46.977Z,11.85
2022-10-02T08:33:22.345Z,18.75
2022-10-02T08:36:16.900Z,17.42
2022-10-02T08:38:54.594Z,13.93
2022-10-02T08:42:15.827Z,12.25
2022-10-02T08:45:24.326Z,10.63
2022-10-02T08:48:28.575Z,11.10
2022-10-02T08:51:20.830Z,7.30
2022-10-02T08:54:09.149Z,12.23
2022-10-02T08:56:58.644Z,11.93
2022-10-02T09:00:02.948Z,5.95
2022-10-02T09:02:38.648Z,7.47
2022-10-02T09:07:56.773Z,8.65
2022-10-02T09:10:48.007Z,9.77
2022-10-02T09:13:29.834Z,10.27
2022-10-02T09:16:19.770Z,10.73
2022-10-02T09:19:21.522Z,8.57
2022-10-02T09:21:48.348Z,13.68
2022-10-02T09:24:48.562Z,12.20
2022-10-02T09:27:36.590Z,8.73
2022-10-02T09:30:23.433Z,8.00
2022-10-02T09:33:11.630Z,6.68
2022-10-02T09:36:08.236Z,8.15
2022-10-02T09:38:49.964Z,8.93
2022-10-02T09:41:37.901Z,6.72
2022-10-02T09:44:29.230Z,10.38
2022-10-02T09:46:55.809Z,5.68
2022-10-02T09:49:42.411Z,6.22
2022-10-02T09:52:41.943Z,6.47
2022-10-02T09:55:50.243Z,6.57
2022-10-02T09:58:47.695Z,6.45
2022-10-02T10:01:26.592Z,5.18
2022-10-02T10:04:33.840Z,8.02
2022-10-02T10:07:20.229Z,8.02
2022-10-02T10:10:11.465Z,12.50
2022-10-02T10:12:38.793Z,8.65
2022-10-02T10:15:43.070Z,8.15
2022-10-02T10:18:28.512Z,10.93
2022-10-02T10:21:04.188Z,9.23
2022-10-02T10:23:49.844Z,5.05
2022-10-02T10:26:22.282Z,9.75
2022-10-02T10:28:59.669Z,9.70
2022-10-02T10:31:48.513Z,8.00
2022-10-02T10:34:46.286Z,5.85
2022-10-02T10:37:50.996Z,4.60
2022-10-02T10:40:38.192Z,4.93
2022-10-02T10:43:08.639Z,5.13
2022-10-02T10:45:54.389Z,5.15
2022-10-02T10:48:35.006Z,6.50
2022-10-02T10:51:30.717Z,6.32
2022-10-02T10:54:22.862Z,4.77
2022-10-02T10:57:18.586Z,6.28
2022-10-02T11:00:04.451Z,5.35
2022-10-02T11:02:39.929Z,8.68
2022-10-02T11:08:07.066Z,5.82
2022-10-02T11:10:42.511Z,6.15
2022-10-02T11:13:35.270Z,5.53
2022-10-02T11:16:16.710Z,5.45
2022-10-02T11:19:05.301Z,5.70
2022-10-02T11:21:51.844Z,7.75
2022-10-02T11:24:42.895Z,5.85
2022-10-02T11:27:27.279Z,8.23
2022-10-02T11:30:38.250Z,4.88
2022-10-02T11:33:27.137Z,7.20
2022-10-02T11:36:24.254Z,4.13
2022-10-02T11:39:15.482Z,7.75
2022-10-02T11:42:13.374Z,7.78
2022-10-02T11:44:51.488Z,5.30
2022-10-02T11:47:40.634Z,3.35
2022-10-02T11:50:23.544Z,7.55
2022-10-02T11:53:09.063Z,5.47
2022-10-02T11:56:01.171Z,8.05
2022-10-02T11:58:34.161Z,6.47
2022-10-02T12:01:22.628Z,4.78
2022-10-02T12:04:09.663Z,6.10
2022-10-02T12:07:15.132Z,3.45
2022-10-02T12:10:23.944Z,7.57
2022-10-02T12:13:16.041Z,10.32
2022-10-02T12:15:58.214Z,4.78
2022-10-02T12:18:43.868Z,4.00
2022-10-02T12:21:53.582Z,5.75
2022-10-02T12:25:21.096Z,3.50
2022-10-02T12:31:01.365Z,4.50
2022-10-02T12:33:41.718Z,7.45
2022-10-02T12:36:34.879Z,4.50
2022-10-02T12:39:22.326Z,5.32
2022-10-02T12:41:54.679Z,4.32
2022-10-02T12:44:46.204Z,3.28
2022-10-02T12:47:35.636Z,4.13
2022-10-02T12:50:22.289Z,3.97
2022-10-02T12:53:10.677Z,3.95
2022-10-02T12:55:59.163Z,4.30
2022-10-02T12:58:46.302Z,7.45
2022-10-02T13:01:42.027Z,3.95
2022-10-02T13:04:45.741Z,4.05
2022-10-02T13:07:57.281Z,3.90
2022-10-02T13:10:37.604Z,3.38
2022-10-02T13:13:21.000Z,5.15
2022-10-02T13:15:47.624Z,3.60
2022-10-02T13:18:26.863Z,5.03
2022-10-02T13:21:04.280Z,4.30
2022-10-02T13:23:50.916Z,3.88
2022-10-02T13:26:53.382Z,2.67
2022-10-02T13:29:44.140Z,6.80
2022-10-02T13:32:32.299Z,3.22
2022-10-02T13:35:46.058Z,5.40
2022-10-02T13:38:43.779Z,4.07
2022-10-02T13:41:13.923Z,5.80
2022-10-02T13:43:58.492Z,5.93
2022-10-02T13:46:59.910Z,3.43
2022-10-02T13:49:57.020Z,3.58
2022-10-02T13:52:52.706Z,4.53
2022-10-02T13:55:25.944Z,5.22
2022-10-02T13:57:58.431Z,4.53
2022-10-02T14:00:51.121Z,2.95
2022-10-02T14:03:40.001Z,5.93
2022-10-02T14:06:45.325Z,3.30
2022-10-02T14:09:16.900Z,4.05
2022-10-02T14:11:58.389Z,6.07
2022-10-02T14:14:47.249Z,3.53
2022-10-02T14:17:57.559Z,6.25
2022-10-02T14:21:08.024Z,5.57
2022-10-02T14:24:05.766Z,5.50
2022-10-02T14:27:19.368Z,4.25
2022-10-02T14:30:03.967Z,4.93
2022-10-02T14:32:36.334Z,5.00
2022-10-02T14:35:24.954Z,3.60
2022-10-02T14:38:29.270Z,5.93
2022-10-02T14:40:58.074Z,4.70
2022-10-02T14:43:56.686Z,6.38
2022-10-02T14:46:53.761Z,7.38
2022-10-02T14:49:39.292Z,3.05
2022-10-02T14:55:15.718Z,4.68
2022-10-02T14:58:06.963Z,4.45
2022-10-02T15:01:06.967Z,3.95
2022-10-02T15:04:01.516Z,3.97
2022-10-02T15:06:47.118Z,4.60
2022-10-02T15:09:24.585Z,4.35
2022-10-02T15:12:09.923Z,4.70
2022-10-02T15:14:55.181Z,3.47
2022-10-02T15:17:55.584Z,4.53
2022-10-02T15:20:40.631Z,8.05
2022-10-02T15:23:15.084Z,4.43
2022-10-02T15:25:50.678Z,5.40
2022-10-02T15:28:37.194Z,4.53
2022-10-02T15:31:25.979Z,4.70
2022-10-02T15:34:14.618Z,8.32
2022-10-02T15:37:00.537Z,10.65
2022-10-02T15:39:49.679Z,3.45
2022-10-02T15:42:40.815Z,5.07
2022-10-02T15:45:27.761Z,4.22
2022-10-02T15:48:12.894Z,7.97
2022-10-02T15:50:47.386Z,6.82
2022-10-02T15:53:45.152Z,5.60
2022-10-02T15:56:14.761Z,6.88
2022-10-02T15:58:41.303Z,4.93
2022-10-02T16:01:14.058Z,5.93
2022-10-02T16:03:50.927Z,4.60
2022-10-02T16:06:39.219Z,8.32
2022-10-02T16:09:24.470Z,6.25
2022-10-02T16:12:15.918Z,6.78
2022-10-02T16:15:00.638Z,5.10
2022-10-02T16:17:39.558Z,11.05
2022-10-02T16:20:18.430Z,4.50
2022-10-02T16:22:51.354Z,7.03
2022-10-02T16:25:45.257Z,6.35
2022-10-02T16:28:32.555Z,5.93
2022-10-02T16:31:05.257Z,7.75
2022-10-02T16:33:57.839Z,7.35
2022-10-02T16:36:34.371Z,8.85
2022-10-02T16:39:21.146Z,7.13
2022-10-02T16:42:05.179Z,8.13
2022-10-02T16:44:54.735Z,5.30
2022-10-02T16:47:45.621Z,2.78
2022-10-02T16:50:12.150Z,7.25
2022-10-02T16:52:45.792Z,6.88
2022-10-02T16:55:25.438Z,6.45
2022-10-02T16:58:02.695Z,5.13
2022-10-02T17:00:35.200Z,6.78
2022-10-02T17:03:19.225Z,6.80
2022-10-02T17:05:54.107Z,6.80
2022-10-02T17:08:42.139Z,9.70
2022-10-02T17:11:28.057Z,6.45
2022-10-02T17:14:05.385Z,5.70
2022-10-02T17:16:53.215Z,11.55
2022-10-02T17:19:45.882Z,11.23
2022-10-02T17:22:28.796Z,9.27
2022-10-02T17:25:27.329Z,8.38
2022-10-02T17:27:56.878Z,13.10
2022-10-02T17:30:27.413Z,12.45
2022-10-02T17:32:54.200Z,15.77
2022-10-02T17:35:42.951Z,16.80
2022-10-02T17:38:43.307Z,9.88
2022-10-02T17:41:24.692Z,7.15
2022-10-02T17:44:12.764Z,16.05
2022-10-02T17:46:58.788Z,8.40
2022-10-02T17:49:59.189Z,9.70
2022-10-02T17:53:21.420Z,12.68
2022-10-02T17:56:28.155Z,15.00
2022-10-02T17:59:03.843Z,8.85
2022-10-02T18:02:17.725Z,12.43
2022-10-02T18:05:15.406Z,15.43
2022-10-02T18:07:52.531Z,9.15
2022-10-02T18:10:32.362Z,10.35
2022-10-02T18:13:05.598Z,8.68
2022-10-02T18:16:18.752Z,6.78
2022-10-02T18:19:16.318Z,14.07
2022-10-02T18:22:16.847Z,8.93
2022-10-02T18:24:57.443Z,12.80
2022-10-02T18:27:42.400Z,8.50
2022-10-02T18:30:20.421Z,8.77
2022-10-02T18:33:09.367Z,8.68
2022-10-02T18:35:50.361Z,6.82
2022-10-02T18:38:16.958Z,6.40
2022-10-02T18:41:21.096Z,7.22
2022-10-02T18:44:02.557Z,6.47
2022-10-02T18:46:45.931Z,6.65
2022-10-02T18:49:21.253Z,4.88
2022-10-02T18:52:16.742Z,8.68
2022-10-02T18:54:43.698Z,5.55
2022-10-02T18:57:29.155Z,6.20
2022-10-02T19:00:24.724Z,10.60
2022-10-02T19:03:10.177Z,7.32
2022-10-02T19:05:41.974Z,7.97
2022-10-02T19:08:46.085Z,12.25
2022-10-02T19:11:19.624Z,5.88
2022-10-02T19:13:49.029Z,7.13
2022-10-02T19:16:24.723Z,10.23
2022-10-02T19:19:19.422Z,8.07
2022-10-02T19:21:46.583Z,5.78
2022-10-02T19:24:18.739Z,8.95
2022-10-02T19:26:52.169Z,14.45
2022-10-02T19:29:27.629Z,10.18
2022-10-02T19:31:57.983Z,7.85
2022-10-02T19:34:31.069Z,9.93
2022-10-02T19:37:04.698Z,7.72
2022-10-02T19:39:31.306Z,8.73
2022-10-02T19:42:03.210Z,6.40
2022-10-02T19:44:40.462Z,7.90
2022-10-02T19:47:31.495Z,10.50
2022-10-02T19:50:03.390Z,8.45
2022-10-02T19:52:53.527Z,8.75
2022-10-02T19:55:22.444Z,9.70
2022-10-02T19:57:54.168Z,7.65
2022-10-02T20:00:21.109Z,9.13
2022-10-02T20:02:52.008Z,12.88
2022-10-02T20:05:22.721Z,10.18
2022-10-02T20:07:52.857Z,11.57
2022-10-02T20:10:31.099Z,16.50
2022-10-02T20:13:28.185Z,10.18
2022-10-02T20:16:21.774Z,7.55
2022-10-02T20:18:50.783Z,7.38
2022-10-02T20:21:26.265Z,6.85
2022-10-02T20:23:57.515Z,14.18
2022-10-02T20:26:29.734Z,11.35
2022-10-02T20:29:05.773Z,11.82
2022-10-02T20:31:56.605Z,5.55
2022-10-02T20:34:33.596Z,7.70
2022-10-02T20:37:08.354Z,6.28
2022-10-02T20:39:49.669Z,12.60
2022-10-02T20:42:33.720Z,9.23
2022-10-02T20:45:00.382Z,11.40
2022-10-02T20:47:45.643Z,9.63
2022-10-02T20:50:31.521Z,6.55
2022-10-02T20:53:16.239Z,5.45
2022-10-02T20:56:04.722Z,10.63
2022-10-02T20:59:15.263Z,7.68
2022-10-02T21:02:10.654Z,6.78
2022-10-02T21:04:49.353Z,6.97
2022-10-02T21:07:35.297Z,7.28
2022-10-02T21:10:51.799Z,7.03
2022-10-02T21:13:33.167Z,6.15
2022-10-02T21:16:10.797Z,5.57
2022-10-02T21:19:05.013Z,7.53
2022-10-02T21:21:53.963Z,8.32
2022-10-02T21:24:26.719Z,9.98
2022-10-02T21:27:02.412Z,5.10
2022-10-02T21:29:54.762Z,5.70
2022-10-02T21:32:40.002Z,5.95
2022-10-02T21:35:30.469Z,9.02
2022-10-02T21:38:13.087Z,9.50
2022-10-02T21:40:48.632Z,11.70
2022-10-02T21:43:33.719Z,9.75
2022-10-02T21:46:36.010Z,8.43
2022-10-02T21:49:20.608Z,9.63
2022-10-02T21:52:05.782Z,10.15
2022-10-02T21:54:38.588Z,5.72
2022-10-02T21:57:40.234Z,9.95
2022-10-02T22:00:25.447Z,10.07
2022-10-02T22:03:27.780Z,9.60
2022-10-02T22:06:41.878Z,8.75
2022-10-02T22:09:11.374Z,14.38
2022-10-02T22:11:44.137Z,9.35
2022-10-02T22:14:27.545Z,9.77
2022-10-02T22:17:04.589Z,8.95
2022-10-02T22:19:34.211Z,10.68
2022-10-02T22:22:26.018Z,10.00
2022-10-02T22:25:17.693Z,6.13
2022-10-02T22:28:13.524Z,11.73
2022-10-02T22:30:55.311Z,10.70
2022-10-02T22:33:24.679Z,6.38
2022-10-02T22:36:21.123Z,11.75
2022-10-02T22:38:53.228Z,11.48
2022-10-02T22:41:34.309Z,10.52
2022-10-02T22:44:12.384Z,10.98
2022-10-02T22:46:48.196Z,9.30
2022-10-02T22:52:18.315Z,9.20
2022-10-02T22:55:04.819Z,12.48
2022-10-02T22:57:47.369Z,9.50
2022-10-02T23:00:18.793Z,9.13
2022-10-02T23:02:50.414Z,8.68
2022-10-02T23:05:23.574Z,13.32
2022-10-02T23:07:59.722Z,5.28
2022-10-02T23:10:38.217Z,9.82
2022-10-02T23:13:23.408Z,14.00
2022-10-02T23:16:08.806Z,8.45
2022-10-02T23:18:49.425Z,10.50
2022-10-02T23:21:27.790Z,5.55
2022-10-02T23:24:06.302Z,10.25
2022-10-02T23:26:43.102Z,14.88
2022-10-02T23:29:25.848Z,8.90
2022-10-02T23:32:21.831Z,8.95
2022-10-02T23:35:00.286Z,11.97
2022-10-02T23:37:26.897Z,8.70
2022-10-02T23:40:05.849Z,9.05
2022-10-02T23:42:39.997Z,14.63
2022-10-02T23:45:30.517Z,14.50
2022-10-02T23:48:00.683Z,9.05
2022-10-02T23:50:37.207Z,7.90
2022-10-02T23:53:28.393Z,8.07
2022-10-02T23:56:24.183Z,12.40
2022-10-02T23:59:06.072Z,13.15
